Main page


Airports :

Farnborough, England

Farnborough Airport

latitude: 51-17N, longitude: 000-46W, elevation: 65 m

Current weather observation

The report was made 22 minutes ago, at 17:20 UTC
Wind 11 kt from the North, varying between North/Northwest and Northeast
Temperature 6°C
Humidity 52%
Pressure 1031 hPa
Visibility 10 km or more
Few clouds at a height of 4600 ft

METAR: EGLF 201720Z 01011KT 330V040 9999 FEW046 06/M03 Q1031

Time: 17:42 (17:42 UTC)


The report was made 40 minutes ago, at 17:02 UTC
Forecast valid from 20 at 18 UTC to 21 at 03 UTC
Wind 9 kt from the North/Northeast
Visibility 10 km or more
Scattered clouds at a height of 3500 ft

TAF: EGLF 201702Z 2018/2103 02009KT 9999 SCT035

Weather observations and forecasts of more than 4000 airports (METAR and TAF reports).

The available stations are represented by yellow and red dots on the map.

Hover mouse over dot to see the name of the station.

Then click to see weather observations and forecasts.

To change the map : click on the green buttons with a black cross to zoom in, on the green button with a dash to zoom out, or on the green arrows for adjacent maps.